• Join FlightAware (Why Join?)
  • Login
  • US Flag 
08:30PM EDT


 

Airport Tracker/Info


-or-


 

Live Flight TrackerFlight Track Log ✈ N510SR ✈ 18-Sep-2013 ✈ KDAL - KTEB

Flight Track Log - Related Links

Times and Time Zones

All times are in EDT time to prevent confusion due to time zone crossing. See the N510SR flight status page for this flight to view local times or setup timezone preferences in your user account.

Time Position Orientation Groundspeed Altitude Reporting Facility
EDT Latitude Longitude Course Direction KTS MPH feet Rate Location/Type
04:02PM 32.8333 -96.8333 124° Southeast 165 190 1,200  Level Dallas / Fort Worth TRACON
04:04PM 32.7625 -96.7069 124° Southeast 231 266 6,600 2,040 Climbing Fort Worth Center
04:05PM 32.8397 -96.6889 11° North 199 229 8,400 2,220 Climbing Fort Worth Center
04:06PM 32.9231 -96.6783 North 269 310 11,100 2,400 Climbing Fort Worth Center
04:07PM 32.9708 -96.6161 48° Northeast 277 319 13,300 1,980 Climbing Fort Worth Center
04:08PM 32.9719 -96.5047 89° East 271 312 15,100 1,800 Climbing Fort Worth Center
04:09PM 32.9878 -96.3806 81° East 324 373 17,000 1,500 Climbing Fort Worth Center
04:10PM 32.9994 -96.2642 83° East 378 435 18,100 1,200 Climbing Fort Worth Center
04:11PM 33.0167 -96.1178 82° East 407 468 19,500 1,440 Climbing Fort Worth Center
04:12PM 33.0300 -95.9911 83° East 422 486 21,000 1,500 Climbing Fort Worth Center
04:13PM 33.0469 -95.8347 83° East 430 495 22,500 1,020 Climbing Fort Worth Center
04:14PM 33.0619 -95.7006 82° East 441 507 23,100 1,140 Climbing Fort Worth Center
04:15PM 33.0847 -95.5514 80° East 448 516 24,800 1,380 Climbing Fort Worth Center
04:16PM 33.1200 -95.4044 74° East 453 521 25,900 1,140 Climbing Fort Worth Center
04:17PM 33.1675 -95.2519 70° East 465 535 27,100 1,620 Climbing Fort Worth Center
04:18PM 33.2169 -95.0869 70° East 465 535 29,200 1,800 Climbing Fort Worth Center
04:19PM 33.2619 -94.9392 70° East 471 542 30,800 1,800 Climbing Fort Worth Center
04:20PM 33.3133 -94.7961 67° East 471 542 32,800 1,800 Climbing Fort Worth Center
04:21PM 33.3689 -94.6575 64° Northeast 466 536 34,400 1,500 Climbing Fort Worth Center
04:22PM 33.4242 -94.5164 65° Northeast 461 531 35,800 1,380 Climbing Fort Worth Center
04:23PM 33.4772 -94.3778 65° Northeast 461 531 37,200 1,320 Climbing Fort Worth Center
04:24PM 33.5281 -94.2389 66° East 456 525 38,500 1,260 Climbing Fort Worth Center
04:25PM 33.5808 -94.0975 66° East 456 525 39,800 1,140 Climbing Fort Worth Center
04:26PM 33.6314 -93.9583 66° East 456 525 40,800 600 Climbing Fort Worth Center
04:27PM 33.6794 -93.8167 68° East 456 525 41,000 60 Climbing Fort Worth Center
04:28PM 33.7317 -93.6722 66° East 459 528 41,000  Level Fort Worth Center
04:29PM 33.7833 -93.5225 67° East 470 541 41,100  Climbing Fort Worth Center
04:30PM 33.8292 -93.3928 67° East 474 545 41,100  Level Memphis Center
04:31PM 33.8828 -93.2422 67° East 474 545 41,100  Level Memphis Center
04:32PM 33.9364 -93.0911 67° East 479 551 41,100  Level Memphis Center
04:33PM 33.9917 -92.9375 67° East 484 557 41,100  Level Memphis Center
04:34PM 34.0447 -92.7864 67° East 489 563 41,100  Level Memphis Center
04:35PM 34.0936 -92.6297 69° East 494 568 41,100  Level Memphis Center
04:36PM 34.1464 -92.4831 66° East 489 563 41,100  Level Memphis Center
04:37PM 34.1989 -92.3261 68° East 489 563 41,100  Level Memphis Center
04:38PM 34.2514 -92.1689 68° East 494 568 41,100  Level Memphis Center
04:39PM 34.3036 -92.0167 67° East 494 568 41,100  Level Memphis Center
04:40PM 34.3536 -91.8667 68° East 494 568 41,100  Level Memphis Center
04:41PM 34.3967 -91.7417 67° East 494 568 41,100  Level Memphis Center
04:42PM 34.4547 -91.5786 67° East 483 556 41,100  Level Memphis Center
04:43PM 34.5064 -91.4208 68° East 493 567 41,100  Level Memphis Center
04:44PM 34.5556 -91.2700 68° East 493 567 41,100  Level Memphis Center
04:45PM 34.6131 -91.0992 68° East 493 567 41,100  Level Memphis Center
04:46PM 34.6639 -90.9481 68° East 493 567 41,100  Level Memphis Center
04:47PM 34.7144 -90.7892 69° East 488 562 41,100  Level Memphis Center
04:48PM 34.7650 -90.6378 68° East 495 570 41,100  Level Memphis Center
04:49PM 34.8153 -90.4811 69° East 488 562 41,100  Level Memphis Center
04:50PM 34.8656 -90.3242 69° East 488 562 41,100  Level Memphis Center
04:51PM 34.9175 -90.1697 68° East 488 562 41,100  Level Memphis Center
04:52PM 34.9653 -90.0303 67° East 493 567 41,100  Level Memphis Center
04:53PM 35.0211 -89.8728 67° East 499 574 41,100  Level Memphis Center
04:54PM 35.0661 -89.7075 72° East 508 585 41,100  Level Memphis Center
04:55PM 35.1172 -89.5319 70° East 503 579 41,100  Level Memphis Center
04:56PM 35.1661 -89.3767 69° East 489 563 41,100  Level Memphis Center
04:57PM 35.2128 -89.2211 70° East 489 563 41,100  Level Memphis Center
04:58PM 35.2633 -89.0600 69° East 494 568 41,100  Level Memphis Center
04:59PM 35.3094 -88.9017 70° East 489 563 41,100  Level Memphis Center
05:00PM 35.3597 -88.7456 68° East 494 568 41,100  Level Memphis Center
05:01PM 35.4078 -88.5892 69° East 489 563 41,100  Level Memphis Center
05:02PM 35.4472 -88.4431 72° East 489 563 41,100  Level Memphis Center
05:03PM 35.4969 -88.2839 69° East 494 568 41,100  Level Memphis Center
05:04PM 35.5439 -88.1142 71° East 494 568 41,100  Level Memphis Center
05:05PM 35.5953 -87.9622 67° East 483 556 41,100  Level Memphis Center
05:06PM 35.6422 -87.8025 70° East 483 556 41,100  Level Memphis Center
05:07PM 35.6869 -87.6453 71° East 490 564 41,100  Level Memphis Center
05:08PM 35.7333 -87.4850 70° East 490 564 41,100  Level Memphis Center
05:09PM 35.7794 -87.3247 70° East 490 564 41,100  Level Memphis Center
05:10PM 35.8256 -87.1644 70° East 490 564 41,100  Level Memphis Center
05:11PM 35.8714 -87.0039 71° East 490 564 41,100  Level Memphis Center
05:12PM 35.9169 -86.8456 70° East 490 564 41,100  Level Memphis Center
05:13PM 35.9625 -86.6872 70° East 490 564 41,100  Level Memphis Center
05:14PM 36.0056 -86.5236 72° East 490 564 41,100  Level Memphis Center
05:15PM 36.0525 -86.3647 70° East 490 564 41,100  Level Memphis Center
05:16PM 36.0972 -86.2033 71° East 495 570 41,100  Level Memphis Center
05:17PM 36.1419 -86.0444 71° East 490 564 41,100  Level Memphis Center
05:19PM 36.2167 -85.7803 71° East 489 563 41,100  Level Indianapolis Center
05:20PM 36.2611 -85.6192 71° East 490 564 41,100  Level Indianapolis Center
05:21PM 36.3144 -85.4242 71° East 494 568 41,100  Level Indianapolis Center
05:22PM 36.3578 -85.2611 72° East 493 567 41,100  Level Indianapolis Center
05:23PM 36.4017 -85.0975 72° East 494 568 41,100  Level Indianapolis Center
05:24PM 36.4447 -84.9342 72° East 494 568 41,100  Level Indianapolis Center
05:25PM 36.4883 -84.7681 72° East 498 573 41,100  Level Indianapolis Center
05:26PM 36.5303 -84.6053 72° East 494 568 41,100  Level Indianapolis Center
05:27PM 36.5786 -84.4236 72° East 493 567 41,100  Level Indianapolis Center
05:28PM 36.6200 -84.2597 72° East 493 567 41,100  Level Indianapolis Center
05:29PM 36.6628 -84.0958 72° East 497 572 41,100  Level Indianapolis Center
05:30PM 36.7036 -83.9328 73° East 493 567 41,100  Level Indianapolis Center
05:31PM 36.7553 -83.7444 71° East 490 564 41,100  Level Indianapolis Center
05:32PM 36.7956 -83.5783 73° East 499 574 41,100  Level Indianapolis Center
05:33PM 36.8364 -83.4150 73° East 496 571 41,100  Level Indianapolis Center
05:34PM 36.8772 -83.2497 73° East 496 571 41,100  Level Indianapolis Center
05:36PM 36.9181 -83.0853 73° East 492 566 41,100  Level Indianapolis Center
05:37PM 36.9672 -82.9061 71° East 493 567 41,100  Level Indianapolis Center
05:38PM 37.0025 -82.7419 75° East 504 580 41,100  Level Indianapolis Center
05:39PM 37.0419 -82.5764 73° East 499 574 41,100  Level Indianapolis Center
05:40PM 37.0883 -82.3844 73° East 491 565 41,100  Level Indianapolis Center
05:41PM 37.1278 -82.2211 73° East 491 565 41,100  Level Indianapolis Center
05:42PM 37.1672 -82.0542 73° East 496 571 41,100  Level Indianapolis Center
05:43PM 37.2058 -81.8894 74° East 493 567 41,100  Level Indianapolis Center
05:44PM 37.2456 -81.7231 73° East 496 571 41,100  Level Indianapolis Center
05:45PM 37.2836 -81.5567 74° East 496 571 41,100  Level Indianapolis Center
05:46PM 37.3219 -81.3917 74° East 489 563 41,100  Level Indianapolis Center
05:47PM 37.3656 -81.2006 74° East 487 560 41,100  Level Indianapolis Center
05:48PM 37.4008 -81.0411 74° East 487 560 41,100  Level Indianapolis Center
05:49PM 37.4364 -80.8808 74° East 489 563 41,100  Level Indianapolis Center
05:50PM 37.4806 -80.6867 74° East 493 567 41,100  Level Indianapolis Center
05:51PM 37.5017 -80.5894 75° East 501 577 41,100  Level Washington Center
05:52PM 37.5378 -80.4242 75° East 501 577 41,100  Level Washington Center
05:53PM 37.5728 -80.2744 74° East 501 577 41,100  Level Washington Center
05:54PM 37.6086 -80.1061 75° East 509 586 41,100  Level Washington Center
05:55PM 37.6439 -79.9431 75° East 503 579 41,100  Level Washington Center
05:56PM 37.6861 -79.7539 74° East 504 580 41,100  Level Washington Center
05:57PM 37.7203 -79.6033 74° East 495 570 41,100  Level Washington Center
05:58PM 37.7572 -79.4347 74° East 495 570 41,100  Level Washington Center
05:59PM 37.7939 -79.2631 75° East 495 570 41,100  Level Washington Center
06:00PM 37.8306 -79.0781 76° East 489 563 41,100  Level Washington Center
06:01PM 37.8644 -78.9114 76° East 489 563 41,100  Level Washington Center
06:02PM 37.8983 -78.7392 76° East 489 563 41,100  Level Washington Center
06:03PM 37.9317 -78.5747 76° East 489 563 41,100  Level Washington Center
06:04PM 37.9647 -78.4206 75° East 489 563 41,100  Level Washington Center
06:05PM 38.0019 -78.2506 74° East 489 563 41,100 -60 Level Washington Center
06:06PM 38.0469 -78.0942 70° East 482 555 41,000 -660 Descending Washington Center
06:07PM 38.1189 -77.9433 59° Northeast 482 555 39,900 -1,200 Descending Washington Center
06:08PM 38.1906 -77.7950 58° Northeast 487 560 38,700 -1,140 Descending Washington Center
06:09PM 38.2642 -77.6464 58° Northeast 492 566 37,700 -840 Descending Washington Center
06:10PM 38.3375 -77.5003 57° Northeast 492 566 37,100 -300 Descending Washington Center
06:11PM 38.4125 -77.3539 57° Northeast 492 566 37,100  Level Washington Center
06:12PM 38.5000 -77.2233 49° Northeast 487 560 37,100 -120 Level Washington Center
06:13PM 38.5975 -77.1058 43° Northeast 482 555 36,900 -1,200 Descending Washington Center
06:14PM 38.6925 -76.9881 44° Northeast 471 542 34,700 -2,040 Descending Washington Center
06:15PM 38.7836 -76.8753 44° Northeast 459 528 32,800 -1,980 Descending Washington Center
06:16PM 38.8786 -76.7569 44° Northeast 459 528 30,800 -1,980 Descending Washington Center
06:17PM 38.9733 -76.6383 44° Northeast 459 528 28,800 -1,980 Descending Washington Center
06:18PM 39.0619 -76.5272 44° Northeast 454 522 26,900 -1,920 Descending Washington Center
06:19PM 39.1481 -76.4214 44° Northeast 440 506 25,100 -1,440 Descending Washington Center
06:20PM 39.2342 -76.3150 44° Northeast 427 491 24,000 -540 Descending Washington Center
06:21PM 39.3142 -76.2086 46° Northeast 417 480 24,100 -300 Climbing Washington Center
06:22PM 39.4106 -76.0939 43° Northeast 417 480 23,500 -1,740 Descending Washington Center
06:23PM 39.5500 -75.9167 44° Northeast 397 457 19,500 -2,340 Descending Philadelphia TRACON
06:24PM 39.6333 -75.8000 47° Northeast 381 438 17,100 -2,100 Descending Philadelphia TRACON
06:25PM 39.7000 -75.7167 44° Northeast 365 420 15,100 -2,040 Descending Philadelphia TRACON
06:26PM 39.7667 -75.6500 38° Northeast 355 409 13,500 -1,080 Descending Philadelphia TRACON
06:27PM 39.8500 -75.5500 43° Northeast 350 403 13,100 -240 Descending Philadelphia TRACON
06:28PM 39.9333 -75.4833 32° Northeast 354 407 13,100  Level Philadelphia TRACON
06:29PM 40.0167 -75.4000 37° Northeast 350 403 13,100  Level Philadelphia TRACON
06:30PM 40.0833 -75.3333 37° Northeast 296 341 13,100  Level Philadelphia TRACON
06:31PM 40.1500 -75.2667 37° Northeast 305 351 13,100 -1,140 Level Philadelphia TRACON
06:34PM 40.2683 -75.1484 37° Northeast  Level FlightAware Approximate
06:34PM 40.3500 -75.0833 37° Northeast 288 331 8,700  Level New York TRACON
06:35PM 40.4000 -75.0000 52° Northeast 284 327 7,200 -1,320 Descending New York TRACON
06:37PM 40.4957 -74.8461 52° Northeast  Level FlightAware Approximate
06:37PM 40.5000 -74.8500 52° Northeast 272 313 4,900  Level New York TRACON
06:38PM 40.5667 -74.8000 30° Northeast 271 312 4,100 -420 Descending New York TRACON
06:39PM 40.6333 -74.7333 37° Northeast 275 316 4,100  Level New York TRACON
06:40PM 40.6833 -74.6667 45° Northeast 274 315 4,100  Level New York TRACON
06:41PM 40.7500 -74.6000 37° Northeast 275 316 4,100  Level New York TRACON
06:42PM 40.8000 -74.5500 37° Northeast 273 314 4,100  Level New York TRACON
06:43PM 40.8667 -74.4833 37° Northeast 274 315 4,100 -60 Level New York TRACON
06:44PM 40.9167 -74.4167 45° Northeast 270 311 4,000 -360 Descending New York TRACON
06:45PM 40.9667 -74.3500 45° Northeast 272 313 3,400 -600 Descending New York TRACON
06:46PM 40.9833 -74.2500 78° East 272 313 2,800 -660 Descending New York TRACON
06:47PM 41.0000 -74.1667 75° East 263 303 2,200 -360 Descending New York TRACON
06:48PM 40.9833 -74.0833 105° East 238 274 2,100 -240 Descending New York TRACON
06:49PM 40.9500 -74.0500 143° Southeast 198 228 1,800 -600 Descending New York TRACON
06:50PM 40.9000 -74.0500 180° South 153 176 900 -900 Descending New York TRACON